Terminal Aerodrome Forecast
Issued by NWS Sioux Falls, SD

Home | Current Version | Previous Version | Text Only | Print | Product List | Glossary On
Versions: 1 2 3 4 5 6 7 8 9 10 11 12 13 14 15 16 17 18 19 20 21 22 23
000
FTUS43 KFSD 230520
TAFFSD
TAF
KFSD 230520Z 2306/2406 09010KT P6SM OVC025
     FM230800 09011KT 6SM BR OVC015
     FM231300 11010KT 2SM BR OVC008
     FM231600 12011KT P6SM BKN010
     FM231800 12011KT P6SM BKN050
     FM232000 13012KT P6SM SCT250=

USA.gov is the U.S. government's official web portal to all federal, state and local government web resources and services.